createdAt,value
2018-07-14T00:02:12.957Z,50.59
2018-07-14T00:04:40.377Z,50.23
2018-07-14T00:07:07.833Z,51.30
2018-07-14T00:09:35.315Z,51.15
2018-07-14T00:12:02.790Z,50.46
2018-07-14T00:14:30.225Z,50.27
2018-07-14T00:16:57.662Z,51.03
2018-07-14T00:19:25.146Z,50.35
2018-07-14T00:21:52.576Z,50.60
2018-07-14T00:24:20.090Z,50.48
2018-07-14T00:26:47.529Z,50.37
2018-07-14T00:29:14.958Z,50.38
2018-07-14T00:31:42.442Z,50.21
2018-07-14T00:34:09.877Z,51.08
2018-07-14T00:36:37.334Z,50.48
2018-07-14T00:39:05.411Z,51.18
2018-07-14T00:41:32.871Z,51.27
2018-07-14T00:44:00.304Z,50.84
2018-07-14T00:46:27.786Z,51.58
2018-07-14T00:48:55.222Z,50.84
2018-07-14T00:51:22.704Z,51.63
2018-07-14T00:53:50.141Z,52.08
2018-07-14T00:56:17.614Z,51.98
2018-07-14T00:58:45.058Z,51.65
2018-07-14T01:01:12.513Z,52.15
2018-07-14T01:03:39.987Z,51.85
2018-07-14T01:06:07.422Z,51.43
2018-07-14T01:08:34.898Z,52.33
2018-07-14T01:11:02.340Z,51.50
2018-07-14T01:13:29.805Z,52.22
2018-07-14T01:15:57.270Z,51.65
2018-07-14T01:18:24.725Z,51.86
2018-07-14T01:20:52.163Z,52.61
2018-07-14T01:23:19.633Z,52.18
2018-07-14T01:25:47.085Z,52.47
2018-07-14T01:28:14.530Z,52.84
2018-07-14T01:30:42.008Z,53.10
2018-07-14T01:33:09.449Z,52.86
2018-07-14T01:35:36.921Z,52.71
2018-07-14T01:38:04.545Z,52.60
2018-07-14T01:40:32.081Z,52.32
2018-07-14T01:42:59.485Z,53.14
2018-07-14T01:45:26.953Z,53.07
2018-07-14T01:47:54.413Z,52.83
2018-07-14T01:50:21.888Z,52.14
2018-07-14T01:52:49.314Z,52.81
2018-07-14T01:55:16.764Z,52.28
2018-07-14T01:57:44.237Z,52.33
2018-07-14T02:00:11.709Z,52.70
2018-07-14T02:02:39.150Z,51.90
2018-07-14T02:05:06.952Z,52.64
2018-07-14T02:07:34.278Z,52.78
2018-07-14T02:10:01.746Z,51.89
2018-07-14T02:12:29.202Z,51.78
2018-07-14T02:14:56.667Z,52.56
2018-07-14T02:17:24.133Z,52.50
2018-07-14T02:19:51.547Z,52.45
2018-07-14T02:22:19.019Z,52.60
2018-07-14T02:24:46.477Z,52.43
2018-07-14T02:27:13.954Z,51.77
2018-07-14T02:29:41.398Z,51.68
2018-07-14T02:32:08.841Z,52.16
2018-07-14T02:34:36.309Z,52.40
2018-07-14T02:37:03.816Z,51.70
2018-07-14T02:39:31.255Z,51.85
2018-07-14T02:41:58.679Z,52.56
2018-07-14T02:44:26.170Z,51.67
2018-07-14T02:46:53.596Z,52.37
2018-07-14T02:49:21.060Z,51.81
2018-07-14T02:51:48.510Z,51.84
2018-07-14T02:54:15.981Z,52.32
2018-07-14T02:56:43.418Z,52.39
2018-07-14T02:59:10.882Z,51.70
2018-07-14T03:01:38.350Z,51.70
2018-07-14T03:04:05.804Z,52.50
2018-07-14T03:06:33.242Z,51.69
2018-07-14T03:09:00.735Z,51.78
2018-07-14T03:11:28.159Z,51.57
2018-07-14T03:13:55.642Z,52.40
2018-07-14T03:16:23.094Z,52.46
2018-07-14T03:18:50.555Z,51.83
2018-07-14T03:21:17.991Z,51.85
2018-07-14T03:23:45.483Z,52.71
2018-07-14T03:26:12.902Z,51.87
2018-07-14T03:28:40.362Z,52.53
2018-07-14T03:31:07.846Z,51.98
2018-07-14T03:33:35.267Z,51.88
2018-07-14T03:36:02.731Z,51.83
2018-07-14T03:38:30.212Z,52.41
2018-07-14T03:40:57.646Z,52.04
2018-07-14T03:43:25.119Z,52.79
2018-07-14T03:45:52.570Z,52.64
2018-07-14T03:48:20.028Z,52.20
2018-07-14T03:50:47.497Z,52.72
2018-07-14T03:53:14.945Z,51.72
2018-07-14T03:55:42.410Z,52.23
2018-07-14T03:58:09.852Z,52.01
2018-07-14T04:00:37.434Z,52.47
2018-07-14T04:03:04.975Z,52.40
2018-07-14T04:05:32.431Z,52.45
2018-07-14T04:07:59.906Z,51.79
2018-07-14T04:10:27.343Z,52.31
2018-07-14T04:12:54.805Z,51.59
2018-07-14T04:15:22.265Z,52.32
2018-07-14T04:17:49.731Z,52.30
2018-07-14T04:20:17.186Z,51.51
2018-07-14T04:22:44.555Z,51.61
2018-07-14T04:25:11.978Z,51.85
2018-07-14T04:27:39.449Z,52.39
2018-07-14T04:30:06.917Z,52.50
2018-07-14T04:32:34.389Z,52.48
2018-07-14T04:35:01.823Z,51.98
2018-07-14T04:37:29.266Z,52.49
2018-07-14T04:39:56.747Z,52.36
2018-07-14T04:42:24.196Z,51.64
2018-07-14T04:44:51.643Z,52.35
2018-07-14T04:47:19.139Z,52.21
2018-07-14T04:49:47.577Z,52.34
2018-07-14T04:52:15.061Z,52.34
2018-07-14T04:54:42.489Z,52.34
2018-07-14T04:57:09.960Z,52.27
2018-07-14T04:59:37.407Z,51.72
2018-07-14T05:02:05.130Z,51.67
2018-07-14T05:04:32.541Z,51.61
2018-07-14T05:06:59.990Z,51.67
2018-07-14T05:09:27.440Z,51.83
2018-07-14T05:11:54.889Z,51.72
2018-07-14T05:14:22.383Z,51.43
2018-07-14T05:16:49.801Z,52.27
2018-07-14T05:19:17.267Z,51.78
2018-07-14T05:21:44.747Z,52.38
2018-07-14T05:24:12.188Z,52.22
2018-07-14T05:26:39.661Z,51.66
2018-07-14T05:29:07.106Z,52.48
2018-07-14T05:31:34.558Z,52.45
2018-07-14T05:34:02.019Z,52.40
2018-07-14T05:36:29.503Z,51.70
2018-07-14T05:38:56.918Z,51.76
2018-07-14T05:41:24.374Z,52.50
2018-07-14T05:43:51.853Z,52.50
2018-07-14T05:46:19.282Z,51.66
2018-07-14T05:48:46.758Z,52.40
2018-07-14T05:51:14.242Z,52.10
2018-07-14T05:53:41.679Z,52.74
2018-07-14T05:56:09.113Z,51.94
2018-07-14T05:58:36.590Z,52.48
2018-07-14T06:01:04.047Z,52.00
2018-07-14T06:03:31.505Z,52.01
2018-07-14T06:05:58.953Z,52.17
2018-07-14T06:08:26.414Z,52.08
2018-07-14T06:10:53.863Z,52.77
2018-07-14T06:13:21.318Z,53.39
2018-07-14T06:15:48.793Z,52.17
2018-07-14T06:18:16.235Z,52.94
2018-07-14T06:20:43.689Z,51.96
2018-07-14T06:23:11.157Z,52.14
2018-07-14T06:25:38.617Z,52.18
2018-07-14T06:28:06.073Z,52.97
2018-07-14T06:30:33.423Z,52.21
2018-07-14T06:33:00.890Z,52.32
2018-07-14T06:35:28.331Z,52.25
2018-07-14T06:37:55.806Z,52.21
2018-07-14T06:40:23.143Z,52.79
2018-07-14T06:42:50.618Z,52.85
2018-07-14T06:45:18.067Z,52.10
2018-07-14T06:47:45.563Z,52.21
2018-07-14T06:50:13.017Z,52.63
2018-07-14T06:52:40.450Z,52.92
2018-07-14T06:55:07.913Z,52.22
2018-07-14T06:57:35.346Z,52.30
2018-07-14T07:00:02.904Z,52.92
2018-07-14T07:02:30.269Z,53.06
2018-07-14T07:04:57.726Z,52.21
2018-07-14T07:07:25.197Z,52.23
2018-07-14T07:09:52.674Z,52.30
2018-07-14T07:12:20.094Z,53.19
2018-07-14T07:14:47.574Z,53.03
2018-07-14T07:17:15.026Z,52.52
2018-07-14T07:19:55.547Z,52.55
2018-07-14T07:22:23.033Z,53.27
2018-07-14T07:24:50.510Z,53.37
2018-07-14T07:27:17.965Z,53.35
2018-07-14T07:29:45.394Z,53.19
2018-07-14T07:32:12.884Z,52.55
2018-07-14T07:34:40.389Z,52.85
2018-07-14T07:37:07.787Z,52.50
2018-07-14T07:39:35.129Z,52.71
2018-07-14T07:42:02.603Z,52.62
2018-07-14T07:44:30.074Z,53.21
2018-07-14T07:46:57.530Z,52.49
2018-07-14T07:49:24.964Z,53.16
2018-07-14T07:51:52.426Z,53.28
2018-07-14T07:54:19.879Z,52.81
2018-07-14T07:56:47.378Z,50.43
2018-07-14T07:59:14.833Z,51.24
2018-07-14T08:01:42.275Z,51.55
2018-07-14T08:04:09.605Z,51.71
2018-07-14T08:06:37.056Z,51.73
2018-07-14T08:09:05.030Z,50.93
2018-07-14T08:11:32.399Z,51.62
2018-07-14T08:13:59.868Z,51.32
2018-07-14T08:16:27.297Z,51.10
2018-07-14T08:18:54.758Z,51.93
2018-07-14T08:21:22.234Z,51.96
2018-07-14T08:23:49.655Z,52.13
2018-07-14T08:26:17.171Z,52.02
2018-07-14T08:28:44.574Z,52.33
2018-07-14T08:31:12.045Z,52.31
2018-07-14T08:33:39.535Z,52.33
2018-07-14T08:36:06.963Z,52.28
2018-07-14T08:38:34.433Z,51.46
2018-07-14T08:41:01.870Z,51.44
2018-07-14T08:43:29.330Z,51.12
2018-07-14T08:45:56.802Z,51.49
2018-07-14T08:48:24.246Z,52.69
2018-07-14T08:50:51.745Z,52.33
2018-07-14T08:53:19.150Z,52.13
2018-07-14T08:55:46.619Z,51.76
2018-07-14T08:58:14.111Z,52.65
2018-07-14T09:00:41.553Z,52.38
2018-07-14T09:03:09.007Z,51.64
2018-07-14T09:05:36.454Z,51.52
2018-07-14T09:08:03.894Z,51.27
2018-07-14T09:10:31.365Z,52.03
2018-07-14T09:12:58.806Z,51.56
2018-07-14T09:15:26.274Z,51.95
2018-07-14T09:17:53.719Z,51.92
2018-07-14T09:20:21.215Z,51.27
2018-07-14T09:22:48.658Z,51.23
2018-07-14T09:25:16.117Z,51.11
2018-07-14T09:27:43.571Z,51.15
2018-07-14T09:30:11.061Z,51.91
2018-07-14T09:32:38.509Z,51.14
2018-07-14T09:35:05.922Z,50.91
2018-07-14T09:37:33.400Z,51.70
2018-07-14T09:40:00.846Z,51.69
2018-07-14T09:42:28.570Z,50.93
2018-07-14T09:44:56.232Z,51.21
2018-07-14T09:47:23.656Z,51.49
2018-07-14T09:49:51.071Z,50.84
2018-07-14T09:52:18.535Z,50.87
2018-07-14T09:54:46.012Z,51.05
2018-07-14T09:57:13.439Z,50.58
2018-07-14T09:59:40.910Z,50.51
2018-07-14T10:02:08.378Z,50.96
2018-07-14T10:04:35.817Z,51.33
2018-07-14T10:07:03.303Z,50.70
2018-07-14T10:09:30.742Z,50.60
2018-07-14T10:11:58.462Z,50.63
2018-07-14T10:14:26.288Z,51.56
2018-07-14T10:16:53.616Z,50.86
2018-07-14T10:19:21.073Z,50.57
2018-07-14T10:21:48.538Z,50.46
2018-07-14T10:24:16.028Z,51.31
2018-07-14T10:26:43.465Z,50.64
2018-07-14T10:29:10.954Z,51.20
2018-07-14T10:31:38.371Z,50.68
2018-07-14T10:34:05.998Z,51.28
2018-07-14T10:36:33.295Z,50.61
2018-07-14T10:39:00.731Z,51.08
2018-07-14T10:41:28.212Z,50.98
2018-07-14T10:43:55.650Z,51.18
2018-07-14T10:46:23.122Z,51.31
2018-07-14T10:48:50.574Z,50.95
2018-07-14T10:51:18.063Z,50.98
2018-07-14T10:53:45.494Z,50.99
2018-07-14T10:56:12.947Z,50.90
2018-07-14T10:58:40.415Z,50.91
2018-07-14T11:01:07.896Z,50.74
2018-07-14T11:03:35.307Z,50.52
2018-07-14T11:06:02.776Z,50.81
2018-07-14T11:08:30.227Z,50.54
2018-07-14T11:10:57.693Z,50.89
2018-07-14T11:13:25.125Z,50.20
2018-07-14T11:15:52.612Z,50.83
2018-07-14T11:18:20.068Z,50.91
2018-07-14T11:20:47.503Z,50.20
2018-07-14T11:23:14.962Z,50.65
2018-07-14T11:25:42.462Z,50.16
2018-07-14T11:28:09.883Z,51.15
2018-07-14T11:30:37.358Z,50.89
2018-07-14T11:33:04.793Z,51.63
2018-07-14T11:35:32.261Z,51.34
2018-07-14T11:37:59.698Z,51.75
2018-07-14T11:40:27.174Z,50.96
2018-07-14T11:42:54.606Z,50.89
2018-07-14T11:45:22.093Z,50.74
2018-07-14T11:47:49.587Z,51.25
2018-07-14T11:50:17.083Z,50.63
2018-07-14T11:52:44.447Z,50.90
2018-07-14T11:55:11.917Z,51.20
2018-07-14T11:57:39.378Z,50.82
2018-07-14T12:00:06.986Z,50.64
2018-07-14T12:02:34.536Z,50.33
2018-07-14T12:05:01.952Z,51.05
2018-07-14T12:07:29.387Z,51.13
2018-07-14T12:09:56.876Z,50.02
2018-07-14T12:12:24.313Z,50.27
2018-07-14T12:14:51.801Z,50.17
2018-07-14T12:17:19.270Z,50.63
2018-07-14T12:19:47.042Z,50.42
2018-07-14T12:22:14.581Z,50.13
2018-07-14T12:24:42.038Z,50.06
2018-07-14T12:27:09.498Z,50.84
2018-07-14T12:29:36.923Z,50.83
2018-07-14T12:32:04.452Z,50.14
2018-07-14T12:34:31.853Z,50.58
2018-07-14T12:36:59.338Z,49.75
2018-07-14T12:39:26.757Z,50.72
2018-07-14T12:41:54.207Z,49.84
2018-07-14T12:44:21.666Z,49.90
2018-07-14T12:46:49.162Z,49.71
2018-07-14T12:49:16.577Z,50.64
2018-07-14T12:51:44.053Z,49.75
2018-07-14T12:54:11.495Z,49.54
2018-07-14T12:56:38.958Z,49.98
2018-07-14T12:59:06.426Z,49.41
2018-07-14T13:01:33.862Z,49.33
2018-07-14T13:04:01.333Z,49.93
2018-07-14T13:06:28.879Z,49.88
2018-07-14T13:08:56.243Z,49.50
2018-07-14T13:11:23.794Z,49.98
2018-07-14T13:13:51.166Z,49.68
2018-07-14T13:16:18.602Z,49.42
2018-07-14T13:18:46.073Z,49.38
2018-07-14T13:21:14.533Z,49.22
2018-07-14T13:23:42.041Z,48.92
2018-07-14T13:26:09.457Z,48.89
2018-07-14T13:28:36.939Z,48.69
2018-07-14T13:31:05.439Z,49.46
2018-07-14T13:33:32.851Z,49.02
2018-07-14T13:36:00.318Z,49.09
2018-07-14T13:38:27.766Z,48.73
2018-07-14T13:40:55.256Z,48.88
2018-07-14T13:43:22.689Z,49.49
2018-07-14T13:45:50.170Z,48.52
2018-07-14T13:48:17.586Z,49.18
2018-07-14T13:50:45.061Z,49.05
2018-07-14T13:53:12.527Z,48.47
2018-07-14T13:55:39.975Z,49.13
2018-07-14T13:58:07.434Z,49.09
2018-07-14T14:00:34.901Z,48.43
2018-07-14T14:03:02.339Z,48.70
2018-07-14T14:05:29.790Z,48.93
2018-07-14T14:07:57.258Z,49.12
2018-07-14T14:10:24.731Z,48.92
2018-07-14T14:12:52.165Z,47.87
2018-07-14T14:15:19.623Z,48.46
2018-07-14T14:17:47.075Z,48.03
2018-07-14T14:20:14.666Z,47.95
2018-07-14T14:22:42.018Z,47.34
2018-07-14T14:25:09.463Z,48.33
2018-07-14T14:27:36.949Z,48.22
2018-07-14T14:30:04.623Z,48.36
2018-07-14T14:32:32.343Z,47.77
2018-07-14T14:34:59.891Z,48.46
2018-07-14T14:37:27.454Z,47.66
2018-07-14T14:39:55.052Z,47.94
2018-07-14T14:42:22.520Z,47.67
2018-07-14T14:44:49.998Z,47.44
2018-07-14T14:47:17.445Z,47.51
2018-07-14T14:49:44.868Z,47.62
2018-07-14T14:52:12.330Z,47.72
2018-07-14T14:54:39.799Z,47.62
2018-07-14T14:57:07.271Z,47.78
2018-07-14T14:59:34.769Z,47.75
2018-07-14T15:02:02.184Z,47.49
2018-07-14T15:04:29.581Z,47.01
2018-07-14T15:06:57.058Z,46.66
2018-07-14T15:09:24.502Z,47.37
2018-07-14T15:11:51.973Z,47.09
2018-07-14T15:14:19.428Z,47.02
2018-07-14T15:16:46.923Z,46.73
2018-07-14T15:19:14.344Z,46.59
2018-07-14T15:21:41.802Z,46.68
2018-07-14T15:24:09.199Z,46.72
2018-07-14T15:26:36.614Z,46.19
2018-07-14T15:29:04.221Z,46.22
2018-07-14T15:31:31.729Z,46.92
2018-07-14T15:33:59.194Z,46.76
2018-07-14T15:36:26.622Z,46.63
2018-07-14T15:38:54.088Z,45.84
2018-07-14T15:41:21.573Z,46.10
2018-07-14T15:43:49.085Z,45.83
2018-07-14T15:46:16.459Z,46.28
2018-07-14T15:48:43.939Z,45.51
2018-07-14T15:51:11.370Z,45.18
2018-07-14T15:53:38.849Z,45.42
2018-07-14T15:56:06.307Z,46.00
2018-07-14T15:58:33.766Z,45.88
2018-07-14T16:01:01.255Z,45.51
2018-07-14T16:03:28.670Z,46.34
2018-07-14T16:05:56.124Z,46.32
2018-07-14T16:08:23.615Z,45.79
2018-07-14T16:10:51.042Z,45.82
2018-07-14T16:13:18.505Z,45.99
2018-07-14T16:15:46.010Z,44.98
2018-07-14T16:18:13.420Z,45.32
2018-07-14T16:20:40.871Z,45.44
2018-07-14T16:23:08.217Z,45.77
2018-07-14T16:25:35.695Z,45.29
2018-07-14T16:28:04.161Z,45.03
2018-07-14T16:30:31.667Z,45.33
2018-07-14T16:32:59.066Z,44.56
2018-07-14T16:35:26.552Z,45.80
2018-07-14T16:37:53.998Z,45.29
2018-07-14T16:40:21.475Z,45.30
2018-07-14T16:42:49.006Z,46.40
2018-07-14T16:45:16.349Z,45.17
2018-07-14T16:47:43.947Z,45.01
2018-07-14T16:50:11.410Z,44.92
2018-07-14T16:52:38.969Z,45.36
2018-07-14T16:55:06.446Z,45.61
2018-07-14T16:57:33.891Z,46.36
2018-07-14T17:00:01.310Z,46.32
2018-07-14T17:02:29.033Z,45.64
2018-07-14T17:04:56.450Z,45.75
2018-07-14T17:07:24.037Z,46.45
2018-07-14T17:09:51.558Z,46.82
2018-07-14T17:12:19.027Z,45.92
2018-07-14T17:14:46.483Z,46.58
2018-07-14T17:17:13.952Z,46.76
2018-07-14T17:19:41.377Z,46.17
2018-07-14T17:22:08.879Z,46.91
2018-07-14T17:24:36.332Z,47.09
2018-07-14T17:27:03.789Z,46.37
2018-07-14T17:29:31.210Z,46.26
2018-07-14T17:31:58.694Z,47.05
2018-07-14T17:34:26.129Z,46.75
2018-07-14T17:36:53.680Z,47.08
2018-07-14T17:39:21.026Z,46.53
2018-07-14T17:41:48.506Z,46.45
2018-07-14T17:44:16.027Z,47.28
2018-07-14T17:46:43.403Z,46.67
2018-07-14T17:49:10.864Z,46.63
2018-07-14T17:51:38.399Z,46.47
2018-07-14T17:54:05.790Z,47.44
2018-07-14T17:56:33.226Z,46.78
2018-07-14T17:59:00.715Z,46.56
2018-07-14T18:01:28.146Z,47.51
2018-07-14T18:03:55.765Z,47.50
2018-07-14T18:06:23.270Z,47.15
2018-07-14T18:08:50.740Z,47.02
2018-07-14T18:11:18.197Z,47.21
2018-07-14T18:13:45.529Z,46.85
2018-07-14T18:16:12.985Z,47.85
2018-07-14T18:18:40.471Z,47.62
2018-07-14T18:21:07.919Z,47.70
2018-07-14T18:23:35.386Z,47.83
2018-07-14T18:26:02.860Z,47.64
2018-07-14T18:28:30.273Z,47.18
2018-07-14T18:30:57.754Z,46.94
2018-07-14T18:33:25.192Z,47.86
2018-07-14T18:35:52.665Z,47.74
2018-07-14T18:38:20.101Z,47.38
2018-07-14T18:40:47.586Z,47.00
2018-07-14T18:43:15.024Z,47.92
2018-07-14T18:52:38.322Z,47.28
2018-07-14T18:55:05.779Z,47.25
2018-07-14T18:57:33.165Z,47.17
2018-07-14T19:00:00.606Z,48.03
2018-07-14T19:02:28.063Z,47.35
2018-07-14T19:04:55.529Z,47.27
2018-07-14T19:07:22.990Z,47.30
2018-07-14T19:09:50.430Z,47.28
2018-07-14T19:12:17.889Z,47.14
2018-07-14T19:14:45.347Z,48.18
2018-07-14T19:17:12.857Z,48.15
2018-07-14T19:19:40.310Z,47.83
2018-07-14T19:22:07.742Z,48.15
2018-07-14T19:24:35.191Z,47.42
2018-07-14T19:27:02.650Z,47.42
2018-07-14T19:29:30.085Z,48.14
2018-07-14T19:31:57.562Z,47.34
2018-07-14T19:34:25.039Z,47.43
2018-07-14T19:36:52.504Z,48.06
2018-07-14T19:39:19.910Z,48.09
2018-07-14T19:41:47.371Z,47.42
2018-07-14T19:44:15.039Z,47.96
2018-07-14T19:47:54.754Z,47.32
2018-07-14T19:50:22.339Z,46.45
2018-07-14T19:52:50.023Z,46.97
2018-07-14T19:55:17.438Z,46.56
2018-07-14T19:57:45.916Z,46.10
2018-07-14T20:00:13.351Z,46.02
2018-07-14T20:02:40.874Z,46.28
2018-07-14T20:05:08.351Z,46.68
2018-07-14T20:07:35.823Z,46.03
2018-07-14T20:10:03.261Z,45.83
2018-07-14T20:12:30.707Z,46.32
2018-07-14T20:14:58.178Z,45.82
2018-07-14T20:17:25.647Z,46.56
2018-07-14T20:19:53.078Z,45.84
2018-07-14T20:22:20.550Z,46.35
2018-07-14T20:24:54.347Z,45.92
2018-07-14T20:27:21.835Z,45.53
2018-07-14T20:29:51.360Z,45.49
2018-07-14T20:32:19.132Z,45.37
2018-07-14T20:34:46.680Z,46.12
2018-07-14T20:37:14.080Z,45.33
2018-07-14T20:39:41.587Z,46.59
2018-07-14T20:42:09.059Z,46.51
2018-07-14T20:44:36.438Z,46.27
2018-07-14T20:47:03.922Z,45.62
2018-07-14T20:49:31.379Z,46.12
2018-07-14T20:51:58.870Z,45.68
2018-07-14T20:54:26.284Z,46.03
2018-07-14T20:56:53.738Z,45.72
2018-07-14T20:59:21.197Z,45.93
2018-07-14T21:01:48.658Z,45.58
2018-07-14T21:04:16.120Z,45.40
2018-07-14T21:06:43.567Z,46.21
2018-07-14T21:09:11.074Z,46.09
2018-07-14T21:11:38.469Z,46.25
2018-07-14T21:14:05.950Z,45.49
2018-07-14T21:16:33.426Z,46.11
2018-07-14T21:19:00.846Z,46.25
2018-07-14T21:21:28.342Z,45.78
2018-07-14T21:23:55.780Z,46.03
2018-07-14T21:26:23.334Z,46.06
2018-07-14T21:28:50.671Z,46.15
2018-07-14T21:31:18.206Z,45.53
2018-07-14T21:33:45.597Z,45.18
2018-07-14T21:36:13.072Z,46.43
2018-07-14T21:38:40.493Z,46.50
2018-07-14T21:41:07.982Z,45.96
2018-07-14T21:43:35.430Z,46.62
2018-07-14T21:46:02.875Z,46.77
2018-07-14T21:48:30.342Z,46.04
2018-07-14T21:50:57.812Z,46.12
2018-07-14T21:53:25.286Z,46.64
2018-07-14T21:55:52.737Z,46.39
2018-07-14T21:58:20.167Z,46.99
2018-07-14T22:00:47.640Z,46.93
2018-07-14T22:03:15.078Z,46.51
2018-07-14T22:05:42.539Z,46.93
2018-07-14T22:08:09.999Z,46.87
2018-07-14T22:10:37.489Z,47.09
2018-07-14T22:13:07.017Z,46.17
2018-07-14T22:15:35.447Z,46.74
2018-07-14T22:20:48.062Z,47.27
2018-07-14T22:23:15.521Z,46.75
2018-07-14T22:25:42.939Z,47.20
2018-07-14T22:28:10.361Z,46.68
2018-07-14T22:30:37.790Z,47.14
2018-07-14T22:33:05.291Z,47.41
2018-07-14T22:35:32.812Z,47.44
2018-07-14T22:38:00.306Z,46.73
2018-07-14T22:40:27.782Z,47.62
2018-07-14T22:42:55.187Z,47.36
2018-07-14T22:45:22.669Z,47.19
2018-07-14T22:47:50.119Z,47.22
2018-07-14T22:50:17.755Z,47.10
2018-07-14T22:52:45.336Z,46.93
2018-07-14T22:55:12.724Z,47.03
2018-07-14T22:57:40.125Z,47.76
2018-07-14T23:00:07.601Z,47.88
2018-07-14T23:02:35.169Z,47.59
2018-07-14T23:05:02.638Z,47.70
2018-07-14T23:07:30.259Z,48.04
2018-07-14T23:09:57.619Z,47.93
2018-07-14T23:12:25.785Z,46.71
2018-07-14T23:14:53.134Z,46.54
2018-07-14T23:17:20.595Z,46.49
2018-07-14T23:19:48.090Z,46.56
2018-07-14T23:22:15.504Z,47.30
2018-07-14T23:24:43.350Z,47.41
2018-07-14T23:27:11.160Z,47.68
2018-07-14T23:29:38.510Z,47.88
2018-07-14T23:32:06.026Z,47.90
2018-07-14T23:34:33.406Z,47.27
2018-07-14T23:37:00.998Z,47.83
2018-07-14T23:39:28.317Z,47.44
2018-07-14T23:41:56.275Z,47.43
2018-07-14T23:44:23.931Z,48.11
2018-07-14T23:46:51.786Z,47.30
2018-07-14T23:49:19.191Z,47.47
2018-07-14T23:51:46.622Z,47.35
2018-07-14T23:54:14.113Z,48.21
2018-07-14T23:56:41.583Z,47.48
2018-07-14T23:59:09.030Z,48.39
